Time;durP1;ratioP1;P1;durP2;ratioP2;P2;SDS_P1;SDS_P2;PMS_P1;PMS_P2;Temp;Humidity;BMP_temperature;BMP_pressure;BME280_temperature;BME280_humidity;BME280_pressure;Samples;Min_cycle;Max_cycle;Signal;HPM_P1;HPM_P2
2024/02/18 00:00:49;;;;;;;;;;;16.00;88.70;;;;;;4087659;28;19973;-51
2024/02/18 00:03:30;;;;;;;;;;;16.10;87.80;;;;;;4088956;28;19956;-58
2024/02/18 00:06:11;;;;;;;;;;;16.00;87.90;;;;;;4073481;29;19930;-58
2024/02/18 00:08:52;;;;;;;;;;;16.10;87.90;;;;;;4073113;29;19954;-51
2024/02/18 00:11:33;;;;;;;;;;;16.10;88.00;;;;;;4072799;29;20022;-54
2024/02/18 00:14:13;;;;;;;;;;;16.10;88.00;;;;;;4070815;28;19934;-54
2024/02/18 00:16:56;;;;;;;;;;;16.00;88.00;;;;;;4089026;28;19929;-51
2024/02/18 00:19:37;;;;;;;;;;;16.00;88.10;;;;;;4091528;28;19933;-50
2024/02/18 00:22:17;;;;;;;;;;;16.00;88.10;;;;;;4085545;28;19930;-53
2024/02/18 00:24:58;;;;;;;;;;;16.00;88.20;;;;;;4091122;28;20430;-54
2024/02/18 00:27:39;;;;;;;;;;;16.00;88.30;;;;;;4090312;28;19930;-54
2024/02/18 00:30:19;;;;;;;;;;;16.00;88.30;;;;;;4089749;28;19934;-55
2024/02/18 00:33:01;;;;;;;;;;;16.00;88.40;;;;;;4101632;28;19949;-53
2024/02/18 00:35:42;;;;;;;;;;;16.00;89.30;;;;;;4086463;28;19933;-55
2024/02/18 00:38:25;;;;;;;;;;;16.00;88.40;;;;;;4090518;28;19989;-53
2024/02/18 00:41:06;;;;;;;;;;;16.00;88.50;;;;;;4090479;28;19929;-54
2024/02/18 00:43:48;;;;;;;;;;;16.00;88.50;;;;;;4091461;28;20414;-55
2024/02/18 00:46:28;;;;;;;;;;;16.00;88.60;;;;;;4101628;28;19933;-54
2024/02/18 00:49:19;;;;;;;;;;;16.00;88.60;;;;;;4091848;29;20054;-51
2024/02/18 00:52:00;;;;;;;;;;;15.90;88.60;;;;;;4075540;29;20403;-53
2024/02/18 00:54:42;;;;;;;;;;;16.00;89.60;;;;;;4075823;29;19934;-54
2024/02/18 00:57:22;;;;;;;;;;;16.00;88.80;;;;;;4081185;28;20390;-50
2024/02/18 01:00:03;;;;;;;;;;;15.90;88.80;;;;;;4091681;28;19933;-54
2024/02/18 01:02:44;;;;;;;;;;;15.90;88.70;;;;;;4091939;28;19989;-52
2024/02/18 01:05:26;;;;;;;;;;;16.00;88.80;;;;;;4091776;28;19934;-52
2024/02/18 01:08:07;;;;;;;;;;;16.00;88.90;;;;;;4091677;28;20057;-52
2024/02/18 01:10:48;;;;;;;;;;;16.00;88.90;;;;;;4091365;28;20025;-51
2024/02/18 01:13:30;;;;;;;;;;;15.90;88.90;;;;;;4091180;28;20600;-53
2024/02/18 01:16:11;;;;;;;;;;;15.90;88.90;;;;;;4075706;29;20063;-58
2024/02/18 01:18:52;;;;;;;;;;;15.90;88.90;;;;;;4075755;29;20379;-58
2024/02/18 01:21:34;;;;;;;;;;;15.90;89.80;;;;;;4074828;29;20304;-58
2024/02/18 01:24:15;;;;;;;;;;;15.90;89.00;;;;;;4082094;28;19936;-58
2024/02/18 01:26:56;;;;;;;;;;;15.90;89.00;;;;;;4091289;28;20550;-58
2024/02/18 01:29:38;;;;;;;;;;;15.90;89.00;;;;;;4090754;28;19933;-57
2024/02/18 01:32:19;;;;;;;;;;;15.90;89.00;;;;;;4091514;28;20028;-57
2024/02/18 01:35:00;;;;;;;;;;;15.90;89.10;;;;;;4091239;28;19953;-58
2024/02/18 01:37:42;;;;;;;;;;;15.90;89.00;;;;;;4090822;28;19930;-58
2024/02/18 01:40:23;;;;;;;;;;;15.90;89.10;;;;;;4090935;28;19933;-58
2024/02/18 01:43:03;;;;;;;;;;;15.90;89.10;;;;;;4091345;28;19938;-58
2024/02/18 01:45:45;;;;;;;;;;;15.80;89.10;;;;;;4090665;28;19993;-58
2024/02/18 01:48:26;;;;;;;;;;;15.80;89.20;;;;;;4090110;28;19937;-58
2024/02/18 01:51:07;;;;;;;;;;;15.80;89.20;;;;;;4090480;28;20097;-58
2024/02/18 01:53:50;;;;;;;;;;;15.80;90.00;;;;;;4090409;28;19930;-58
2024/02/18 01:56:31;;;;;;;;;;;15.80;89.30;;;;;;4100656;28;20087;-58
2024/02/18 01:59:12;;;;;;;;;;;15.90;89.40;;;;;;4078954;28;20057;-58
2024/02/18 02:01:53;;;;;;;;;;;15.80;89.30;;;;;;4063159;29;19933;-59
2024/02/18 02:04:34;;;;;;;;;;;15.90;89.40;;;;;;4085117;28;20003;-58
2024/02/18 02:07:15;;;;;;;;;;;15.90;89.50;;;;;;4075114;29;19928;-58
2024/02/18 02:09:57;;;;;;;;;;;15.80;89.40;;;;;;4074651;29;20058;-58
2024/02/18 02:12:38;;;;;;;;;;;15.80;89.50;;;;;;4064247;28;19934;-58
2024/02/18 02:15:19;;;;;;;;;;;15.80;89.50;;;;;;4084260;28;20320;-57
2024/02/18 02:18:00;;;;;;;;;;;15.80;89.60;;;;;;4090306;28;20359;-57
2024/02/18 02:20:41;;;;;;;;;;;15.80;89.60;;;;;;4089982;28;19933;-57
2024/02/18 02:23:21;;;;;;;;;;;15.80;89.50;;;;;;4074529;29;19977;-57
2024/02/18 02:26:03;;;;;;;;;;;15.80;89.60;;;;;;4074322;29;19973;-57
2024/02/18 02:28:47;;;;;;;;;;;15.80;89.60;;;;;;4074577;29;20081;-58
2024/02/18 02:31:29;;;;;;;;;;;15.80;89.60;;;;;;4073814;29;20013;-59
2024/02/18 02:34:10;;;;;;;;;;;15.80;89.80;;;;;;4073989;29;19945;-58
2024/02/18 02:36:52;;;;;;;;;;;15.80;89.70;;;;;;4080758;28;19929;-58
2024/02/18 02:39:33;;;;;;;;;;;15.80;89.70;;;;;;4089206;28;20320;-58
2024/02/18 02:42:14;;;;;;;;;;;15.80;90.20;;;;;;4089837;28;19934;-59
2024/02/18 02:44:54;;;;;;;;;;;15.80;89.70;;;;;;4089994;28;19929;-59
2024/02/18 02:47:37;;;;;;;;;;;15.80;89.70;;;;;;4089097;28;19933;-59
2024/02/18 02:50:17;;;;;;;;;;;15.80;89.80;;;;;;4099880;28;19968;-59
2024/02/18 02:52:58;;;;;;;;;;;15.80;89.80;;;;;;4089775;28;19929;-59
2024/02/18 02:55:39;;;;;;;;;;;15.80;89.80;;;;;;4089454;28;19933;-59
2024/02/18 02:58:21;;;;;;;;;;;15.80;89.80;;;;;;4072093;28;19929;-59
2024/02/18 03:01:02;;;;;;;;;;;15.80;89.90;;;;;;4089396;28;19933;-59
2024/02/18 03:03:44;;;;;;;;;;;15.80;89.90;;;;;;4089883;28;19929;-59
2024/02/18 03:06:25;;;;;;;;;;;15.80;90.00;;;;;;4084970;28;19933;-59
2024/02/18 03:09:06;;;;;;;;;;;15.80;90.00;;;;;;4090008;28;19934;-59
2024/02/18 03:11:47;;;;;;;;;;;15.80;90.00;;;;;;4088329;28;19932;-59
2024/02/18 03:14:28;;;;;;;;;;;15.70;89.90;;;;;;4074096;29;19930;-59
2024/02/18 03:17:09;;;;;;;;;;;15.80;90.00;;;;;;4074333;29;19930;-59
2024/02/18 03:19:51;;;;;;;;;;;15.70;90.00;;;;;;4089032;28;19934;-59
2024/02/18 03:22:34;;;;;;;;;;;15.70;90.00;;;;;;4090002;28;20334;-59
2024/02/18 03:25:14;;;;;;;;;;;15.70;90.00;;;;;;4089885;28;19934;-58
2024/02/18 03:27:55;;;;;;;;;;;15.70;89.90;;;;;;4089686;28;19978;-59
2024/02/18 03:30:36;;;;;;;;;;;15.70;90.00;;;;;;4089485;28;19933;-60
2024/02/18 03:33:16;;;;;;;;;;;15.70;90.40;;;;;;4089824;28;19930;-59
2024/02/18 03:35:58;;;;;;;;;;;15.70;90.00;;;;;;4089240;28;20062;-59
2024/02/18 03:38:39;;;;;;;;;;;15.70;90.00;;;;;;4089936;28;19933;-59
2024/02/18 03:41:20;;;;;;;;;;;15.70;90.00;;;;;;4073576;29;19933;-59
2024/02/18 03:44:01;;;;;;;;;;;15.70;90.00;;;;;;4074029;29;19978;-58
2024/02/18 03:46:41;;;;;;;;;;;15.70;90.00;;;;;;4084159;28;20097;-58
2024/02/18 03:49:22;;;;;;;;;;;15.70;90.00;;;;;;4089370;28;19933;-57
2024/02/18 03:52:04;;;;;;;;;;;15.70;90.40;;;;;;4088912;29;19938;-58
2024/02/18 03:54:45;;;;;;;;;;;15.70;90.00;;;;;;4092573;29;19933;-59
2024/02/18 03:57:25;;;;;;;;;;;15.70;90.00;;;;;;4092674;28;19944;-58
2024/02/18 04:00:07;;;;;;;;;;;15.70;90.40;;;;;;4092344;28;19969;-58
2024/02/18 04:02:48;;;;;;;;;;;15.70;90.00;;;;;;4092273;28;19981;-58
2024/02/18 04:05:28;;;;;;;;;;;15.70;90.00;;;;;;4087548;28;19929;-53
2024/02/18 04:08:11;;;;;;;;;;;15.70;90.00;;;;;;4085355;28;19929;-54
2024/02/18 04:10:51;;;;;;;;;;;15.70;90.00;;;;;;4092331;28;20374;-52
2024/02/18 04:13:32;;;;;;;;;;;15.70;90.00;;;;;;4091730;28;20093;-53
2024/02/18 04:16:13;;;;;;;;;;;15.70;90.00;;;;;;4085534;28;19973;-56
2024/02/18 04:18:54;;;;;;;;;;;15.70;90.00;;;;;;4091710;28;19929;-55
2024/02/18 04:21:35;;;;;;;;;;;15.70;90.00;;;;;;4091505;28;20065;-55
2024/02/18 04:24:17;;;;;;;;;;;15.60;90.00;;;;;;4084887;28;19988;-55
2024/02/18 04:26:58;;;;;;;;;;;15.60;90.40;;;;;;4091153;28;20596;-55
2024/02/18 04:29:39;;;;;;;;;;;15.60;90.00;;;;;;4079285;28;20065;-55
2024/02/18 04:32:20;;;;;;;;;;;15.60;90.00;;;;;;4090731;28;20387;-55
2024/02/18 04:35:01;;;;;;;;;;;15.60;90.40;;;;;;4091761;28;19932;-55
2024/02/18 04:37:42;;;;;;;;;;;15.60;90.00;;;;;;4090954;28;19961;-55
2024/02/18 04:40:25;;;;;;;;;;;15.60;90.00;;;;;;4091169;28;20390;-56
2024/02/18 04:43:06;;;;;;;;;;;15.60;90.40;;;;;;4101306;28;20013;-55
2024/02/18 04:45:47;;;;;;;;;;;15.60;90.00;;;;;;4091387;28;19929;-55
2024/02/18 04:48:28;;;;;;;;;;;15.60;90.00;;;;;;4091487;28;19933;-55
2024/02/18 04:51:09;;;;;;;;;;;15.60;90.00;;;;;;4085869;28;19929;-55
2024/02/18 04:53:50;;;;;;;;;;;15.60;90.00;;;;;;4075936;29;19933;-55
2024/02/18 04:56:32;;;;;;;;;;;15.60;90.10;;;;;;4081731;28;20537;-54
2024/02/18 04:59:13;;;;;;;;;;;15.60;90.20;;;;;;4091529;28;20040;-56
2024/02/18 05:01:54;;;;;;;;;;;15.60;90.10;;;;;;4091481;28;20017;-56
2024/02/18 05:04:34;;;;;;;;;;;15.60;90.10;;;;;;4091429;28;19945;-54
2024/02/18 05:07:15;;;;;;;;;;;15.60;90.10;;;;;;4091880;28;20402;-55
2024/02/18 05:09:55;;;;;;;;;;;15.60;90.40;;;;;;4091899;28;19993;-56
2024/02/18 05:12:38;;;;;;;;;;;15.60;90.10;;;;;;4087706;28;20382;-55
2024/02/18 05:15:18;;;;;;;;;;;15.60;90.10;;;;;;4087461;28;19933;-56
2024/02/18 05:18:00;;;;;;;;;;;15.60;90.10;;;;;;4090956;28;19976;-54
2024/02/18 05:20:41;;;;;;;;;;;15.60;90.10;;;;;;4090923;28;20054;-55
2024/02/18 05:23:21;;;;;;;;;;;15.60;90.10;;;;;;4091230;28;19929;-55
2024/02/18 05:26:03;;;;;;;;;;;15.50;90.10;;;;;;4091386;28;19933;-55
2024/02/18 05:28:47;;;;;;;;;;;15.60;90.10;;;;;;4091009;28;19934;-55
2024/02/18 05:31:28;;;;;;;;;;;15.60;90.10;;;;;;4091309;28;19938;-53
2024/02/18 05:34:10;;;;;;;;;;;15.50;90.10;;;;;;4090917;28;19945;-55
2024/02/18 05:36:51;;;;;;;;;;;15.50;90.10;;;;;;4089956;28;19977;-53
2024/02/18 05:39:31;;;;;;;;;;;15.50;90.10;;;;;;4090161;28;20362;-53
2024/02/18 05:42:12;;;;;;;;;;;15.50;90.10;;;;;;4090338;28;19933;-53
2024/02/18 05:44:54;;;;;;;;;;;15.50;90.10;;;;;;4090282;28;20275;-53
2024/02/18 05:47:35;;;;;;;;;;;15.60;90.20;;;;;;4081303;28;20008;-55
2024/02/18 05:50:16;;;;;;;;;;;15.60;90.10;;;;;;4090962;28;19929;-53
2024/02/18 05:52:57;;;;;;;;;;;15.60;90.00;;;;;;4090512;28;20406;-55
2024/02/18 05:55:37;;;;;;;;;;;15.60;90.00;;;;;;4090907;28;20284;-54
2024/02/18 05:58:18;;;;;;;;;;;15.60;90.00;;;;;;4084815;28;20483;-58
2024/02/18 06:01:01;;;;;;;;;;;15.60;90.00;;;;;;4075030;29;20284;-58
2024/02/18 06:03:42;;;;;;;;;;;15.60;90.00;;;;;;4074203;29;19933;-58
2024/02/18 06:06:23;;;;;;;;;;;15.60;90.40;;;;;;4075334;29;19933;-54
2024/02/18 06:09:04;;;;;;;;;;;15.60;90.10;;;;;;4074831;29;19977;-53
2024/02/18 06:11:45;;;;;;;;;;;15.70;90.00;;;;;;4084008;28;19937;-52
2024/02/18 06:14:26;;;;;;;;;;;15.80;89.90;;;;;;4091001;28;19933;-52
2024/02/18 06:17:08;;;;;;;;;;;15.80;89.50;;;;;;4089943;28;19929;-55
2024/02/18 06:19:49;;;;;;;;;;;15.90;89.30;;;;;;4090807;28;19928;-55
2024/02/18 06:22:30;;;;;;;;;;;15.90;89.10;;;;;;4090482;28;20272;-56
2024/02/18 06:25:11;;;;;;;;;;;16.00;89.10;;;;;;4090342;28;19933;-52
2024/02/18 06:27:52;;;;;;;;;;;15.90;88.90;;;;;;4089910;28;19933;-54
2024/02/18 06:30:33;;;;;;;;;;;15.90;88.90;;;;;;4089721;28;19929;-55
2024/02/18 06:33:15;;;;;;;;;;;16.00;89.00;;;;;;4089712;28;19930;-58
2024/02/18 06:35:56;;;;;;;;;;;16.00;88.80;;;;;;4089491;28;19933;-58
2024/02/18 06:38:37;;;;;;;;;;;16.00;88.90;;;;;;4086543;28;20648;-62
2024/02/18 06:41:18;;;;;;;;;;;16.00;89.00;;;;;;4089391;28;20016;-57
2024/02/18 06:43:58;;;;;;;;;;;16.10;88.90;;;;;;4089599;28;19929;-59
2024/02/18 06:46:39;;;;;;;;;;;16.20;88.60;;;;;;4089212;28;19933;-58
2024/02/18 06:49:21;;;;;;;;;;;16.20;88.40;;;;;;4089929;28;19929;-59
2024/02/18 06:52:02;;;;;;;;;;;16.20;88.10;;;;;;4089625;28;19933;-49
2024/02/18 06:54:43;;;;;;;;;;;16.20;88.00;;;;;;4096834;28;20495;-52
2024/02/18 06:57:24;;;;;;;;;;;16.20;87.90;;;;;;4085187;28;19957;-55
2024/02/18 07:00:08;;;;;;;;;;;16.20;87.80;;;;;;4105668;28;20072;-53
2024/02/18 07:02:48;;;;;;;;;;;16.20;87.80;;;;;;4105889;28;20012;-54
2024/02/18 07:05:30;;;;;;;;;;;16.20;87.90;;;;;;4094700;28;19929;-58
2024/02/18 07:08:12;;;;;;;;;;;16.10;87.90;;;;;;4082492;28;19929;-60
2024/02/18 07:10:53;;;;;;;;;;;16.10;88.00;;;;;;4088539;28;20406;-60
2024/02/18 07:13:33;;;;;;;;;;;16.10;88.10;;;;;;4089077;28;19929;-60
2024/02/18 07:16:15;;;;;;;;;;;16.10;88.20;;;;;;4089847;28;20074;-59
2024/02/18 07:18:55;;;;;;;;;;;16.00;88.30;;;;;;4089816;28;19929;-56
2024/02/18 07:21:37;;;;;;;;;;;16.00;88.40;;;;;;4075156;28;20316;-55
2024/02/18 07:24:18;;;;;;;;;;;16.00;88.80;;;;;;4072010;28;19973;-56
2024/02/18 07:26:59;;;;;;;;;;;15.90;89.20;;;;;;4089560;28;20135;-55
2024/02/18 07:29:39;;;;;;;;;;;15.90;89.70;;;;;;4089484;28;19929;-55
2024/02/18 07:32:20;;;;;;;;;;;15.90;90.50;;;;;;4076081;28;19934;-55
2024/02/18 07:35:01;;;;;;;;;;;15.90;90.20;;;;;;4092124;28;20021;-58
2024/02/18 07:37:43;;;;;;;;;;;15.90;90.30;;;;;;4089846;28;20343;-59
2024/02/18 07:40:24;;;;;;;;;;;15.90;90.30;;;;;;4092595;28;20047;-59
2024/02/18 07:43:05;;;;;;;;;;;16.00;90.10;;;;;;4090777;28;19933;-59
2024/02/18 07:45:46;;;;;;;;;;;16.10;90.00;;;;;;4093208;28;20383;-59
2024/02/18 07:48:27;;;;;;;;;;;16.10;89.60;;;;;;4094952;28;19960;-58
2024/02/18 07:51:09;;;;;;;;;;;16.20;89.00;;;;;;4095673;28;20303;-59
2024/02/18 07:53:51;;;;;;;;;;;16.20;88.50;;;;;;4097615;28;19930;-58
2024/02/18 07:56:32;;;;;;;;;;;16.30;88.00;;;;;;4072529;29;20070;-59
2024/02/18 07:59:13;;;;;;;;;;;16.30;87.60;;;;;;4073470;28;19941;-52
2024/02/18 08:01:54;;;;;;;;;;;16.30;87.30;;;;;;4091594;28;20414;-59
2024/02/18 08:04:35;;;;;;;;;;;16.30;87.10;;;;;;4092003;28;19934;-59
2024/02/18 08:07:16;;;;;;;;;;;16.30;86.90;;;;;;4092092;28;19930;-60
2024/02/18 08:09:58;;;;;;;;;;;16.20;86.70;;;;;;4088542;28;19934;-60
2024/02/18 08:12:39;;;;;;;;;;;16.20;86.60;;;;;;4090386;28;20616;-59
2024/02/18 08:15:19;;;;;;;;;;;16.20;86.80;;;;;;4069905;29;19973;-59
2024/02/18 08:18:00;;;;;;;;;;;16.20;86.80;;;;;;4085515;28;19929;-59
2024/02/18 08:20:41;;;;;;;;;;;16.20;86.60;;;;;;4088256;28;19934;-59
2024/02/18 08:23:21;;;;;;;;;;;16.30;86.40;;;;;;4081771;28;19929;-59
2024/02/18 08:26:04;;;;;;;;;;;16.30;86.40;;;;;;4090467;28;19933;-59
2024/02/18 08:28:45;;;;;;;;;;;16.30;86.20;;;;;;4090975;28;19946;-59
2024/02/18 08:31:25;;;;;;;;;;;16.40;86.20;;;;;;4091020;28;19933;-58
2024/02/18 08:34:07;;;;;;;;;;;16.40;86.10;;;;;;4091389;28;19937;-61
2024/02/18 08:36:48;;;;;;;;;;;16.40;86.20;;;;;;4091018;28;19996;-61
2024/02/18 08:39:29;;;;;;;;;;;16.30;86.00;;;;;;4079257;28;20465;-61
2024/02/18 08:42:11;;;;;;;;;;;16.30;85.90;;;;;;4091194;28;19932;-61
2024/02/18 08:44:52;;;;;;;;;;;16.30;85.90;;;;;;4077777;28;20008;-60
2024/02/18 08:47:33;;;;;;;;;;;16.30;86.20;;;;;;4095231;28;19932;-58
2024/02/18 08:50:13;;;;;;;;;;;16.30;86.60;;;;;;4106438;28;20291;-59
2024/02/18 08:52:54;;;;;;;;;;;16.20;86.60;;;;;;4094193;28;19929;-58
2024/02/18 08:55:36;;;;;;;;;;;16.20;86.60;;;;;;4106398;28;20743;-58
2024/02/18 08:58:18;;;;;;;;;;;16.20;87.60;;;;;;4107338;28;20150;-58
2024/02/18 09:00:59;;;;;;;;;;;16.10;86.70;;;;;;4075489;28;19930;-58
2024/02/18 09:03:40;;;;;;;;;;;16.10;86.90;;;;;;4075306;29;19969;-58
2024/02/18 09:06:21;;;;;;;;;;;16.10;86.90;;;;;;4081615;28;20427;-58
2024/02/18 09:09:02;;;;;;;;;;;16.00;87.00;;;;;;4075672;29;20280;-58
2024/02/18 09:11:43;;;;;;;;;;;16.00;86.90;;;;;;4091685;28;20367;-58
2024/02/18 09:14:25;;;;;;;;;;;16.00;86.90;;;;;;4091388;28;20025;-58
2024/02/18 09:17:06;;;;;;;;;;;15.90;86.80;;;;;;4091270;28;20383;-58
2024/02/18 09:19:49;;;;;;;;;;;15.90;86.90;;;;;;4091550;28;20451;-58
2024/02/18 09:22:31;;;;;;;;;;;15.90;86.90;;;;;;4090220;28;20484;-58
2024/02/18 09:25:11;;;;;;;;;;;15.80;86.90;;;;;;4089625;28;19944;-58
2024/02/18 09:27:52;;;;;;;;;;;15.80;86.90;;;;;;4081713;28;19958;-58
2024/02/18 09:30:34;;;;;;;;;;;15.80;87.80;;;;;;4091680;28;20013;-57
2024/02/18 09:33:15;;;;;;;;;;;15.80;87.00;;;;;;4091344;28;19969;-58
2024/02/18 09:35:56;;;;;;;;;;;15.80;87.00;;;;;;4090415;28;19945;-57
2024/02/18 09:38:38;;;;;;;;;;;15.80;88.00;;;;;;4091063;29;19928;-58
2024/02/18 09:41:20;;;;;;;;;;;15.80;87.10;;;;;;4090722;28;20287;-57
2024/02/18 09:44:05;;;;;;;;;;;15.70;87.10;;;;;;4074930;29;19930;-58
2024/02/18 09:46:48;;;;;;;;;;;15.70;87.10;;;;;;4076923;28;19949;-58
2024/02/18 09:49:29;;;;;;;;;;;15.70;87.20;;;;;;4090606;28;19929;-54
2024/02/18 09:52:12;;;;;;;;;;;15.70;88.10;;;;;;4089923;28;19929;-55
2024/02/18 09:54:53;;;;;;;;;;;15.70;87.20;;;;;;4090901;28;19945;-55
2024/02/18 09:57:34;;;;;;;;;;;15.70;87.20;;;;;;4090819;28;20291;-55
2024/02/18 10:00:15;;;;;;;;;;;15.60;87.30;;;;;;4086634;28;19929;-55
2024/02/18 10:02:57;;;;;;;;;;;15.60;87.30;;;;;;4090487;28;19930;-52
2024/02/18 10:05:38;;;;;;;;;;;15.60;87.30;;;;;;4089706;28;19931;-52
2024/02/18 10:08:19;;;;;;;;;;;15.60;88.30;;;;;;4084521;28;20077;-53
2024/02/18 10:11:00;;;;;;;;;;;15.60;87.50;;;;;;4090277;28;19933;-52
2024/02/18 10:13:41;;;;;;;;;;;15.80;87.30;;;;;;4086735;28;19934;-56
2024/02/18 10:16:21;;;;;;;;;;;15.90;86.80;;;;;;4074673;29;19929;-51
2024/02/18 10:19:04;;;;;;;;;;;16.10;86.10;;;;;;4049919;29;19934;-52
2024/02/18 10:21:45;;;;;;;;;;;16.30;85.30;;;;;;4082934;28;20737;-53
2024/02/18 10:24:26;;;;;;;;;;;16.50;84.60;;;;;;4087424;28;19999;-53
2024/02/18 10:27:07;;;;;;;;;;;16.70;83.70;;;;;;4090190;28;19949;-54
2024/02/18 10:29:48;;;;;;;;;;;16.80;82.90;;;;;;4089924;28;20061;-57
2024/02/18 10:32:30;;;;;;;;;;;16.90;82.10;;;;;;4090036;28;19929;-55
2024/02/18 10:35:12;;;;;;;;;;;17.00;81.60;;;;;;4076785;28;19937;-58
2024/02/18 10:37:56;;;;;;;;;;;17.00;81.40;;;;;;4089921;28;19934;-58
2024/02/18 10:40:40;;;;;;;;;;;17.10;81.40;;;;;;4089247;28;19932;-58
2024/02/18 10:43:23;;;;;;;;;;;17.00;81.20;;;;;;4058368;28;19932;-57
2024/02/18 10:46:06;;;;;;;;;;;17.00;81.50;;;;;;4075510;28;19933;-54
2024/02/18 10:48:50;;;;;;;;;;;16.90;81.40;;;;;;4061789;29;19945;-51
2024/02/18 10:51:44;;;;;;;;;;;16.90;81.40;;;;;;4073516;29;20291;-54
2024/02/18 10:54:28;;;;;;;;;;;16.90;81.60;;;;;;4082594;28;19963;-54
2024/02/18 10:57:09;;;;;;;;;;;16.80;81.60;;;;;;4053804;29;19987;-56
2024/02/18 10:59:57;;;;;;;;;;;16.80;81.70;;;;;;4088411;28;19929;-54
2024/02/18 11:02:40;;;;;;;;;;;16.80;81.90;;;;;;4088504;28;19933;-57
2024/02/18 11:05:21;;;;;;;;;;;16.70;82.10;;;;;;4089408;28;20426;-58
2024/02/18 11:08:04;;;;;;;;;;;16.60;82.20;;;;;;4089282;28;19929;-57
2024/02/18 11:10:45;;;;;;;;;;;16.60;82.40;;;;;;4085695;28;19932;-57
2024/02/18 11:13:28;;;;;;;;;;;16.60;82.50;;;;;;4060774;28;19943;-57
2024/02/18 11:16:10;;;;;;;;;;;16.60;82.50;;;;;;4089378;28;19929;-58
2024/02/18 11:18:51;;;;;;;;;;;16.60;82.50;;;;;;4089689;28;19943;-55
2024/02/18 11:21:33;;;;;;;;;;;16.60;82.60;;;;;;4074202;29;19944;-55
2024/02/18 11:24:15;;;;;;;;;;;16.50;82.60;;;;;;4070143;28;19930;-57
2024/02/18 11:26:56;;;;;;;;;;;16.50;82.70;;;;;;4089441;28;20499;-58
2024/02/18 11:29:45;;;;;;;;;;;16.40;82.70;;;;;;4086575;28;20311;-57
2024/02/18 11:32:27;;;;;;;;;;;16.40;82.80;;;;;;4089298;28;19933;-58
2024/02/18 11:35:12;;;;;;;;;;;16.30;82.80;;;;;;4072665;28;19914;-56
2024/02/18 11:37:56;;;;;;;;;;;16.30;83.00;;;;;;4074433;29;20387;-58
2024/02/18 11:40:46;;;;;;;;;;;16.20;83.10;;;;;;4073486;29;20296;-58
2024/02/18 11:43:27;;;;;;;;;;;16.20;83.30;;;;;;4065517;28;19929;-57
2024/02/18 11:46:16;;;;;;;;;;;16.10;83.30;;;;;;4080365;29;19949;-58
2024/02/18 11:48:57;;;;;;;;;;;16.10;83.40;;;;;;4073654;29;19937;-57
2024/02/18 11:51:38;;;;;;;;;;;16.10;83.50;;;;;;4083824;28;19929;-57
2024/02/18 11:54:19;;;;;;;;;;;16.00;83.50;;;;;;4089524;28;19997;-54
2024/02/18 11:57:01;;;;;;;;;;;16.00;83.60;;;;;;4089182;28;19929;-56
2024/02/18 11:59:42;;;;;;;;;;;15.90;83.70;;;;;;4088478;28;19937;-54
2024/02/18 12:02:23;;;;;;;;;;;16.00;84.40;;;;;;4089536;28;20061;-53
2024/02/18 12:05:05;;;;;;;;;;;15.90;84.80;;;;;;4077307;29;19953;-58
2024/02/18 12:07:47;;;;;;;;;;;15.90;85.20;;;;;;4089414;28;19973;-58
2024/02/18 12:10:28;;;;;;;;;;;15.90;85.60;;;;;;4088464;28;19953;-59
2024/02/18 12:13:10;;;;;;;;;;;15.90;86.00;;;;;;4089552;28;19930;-58
2024/02/18 12:15:52;;;;;;;;;;;15.90;86.20;;;;;;4092359;28;19933;-59
2024/02/18 12:18:33;;;;;;;;;;;16.00;87.20;;;;;;4092362;28;20003;-53
2024/02/18 12:21:16;;;;;;;;;;;16.00;86.30;;;;;;4076515;29;20013;-53
2024/02/18 12:24:00;;;;;;;;;;;16.10;86.70;;;;;;4076491;29;20026;-53
2024/02/18 12:26:42;;;;;;;;;;;16.20;86.40;;;;;;4086590;28;19930;-59
2024/02/18 12:29:25;;;;;;;;;;;16.30;86.80;;;;;;4076393;28;19945;-59
2024/02/18 12:32:06;;;;;;;;;;;16.40;85.70;;;;;;4091725;28;20069;-58
2024/02/18 12:34:48;;;;;;;;;;;16.40;85.60;;;;;;4100010;28;20072;-54
2024/02/18 12:37:29;;;;;;;;;;;16.50;85.30;;;;;;4094233;28;19929;-49
2024/02/18 12:40:14;;;;;;;;;;;16.50;86.00;;;;;;4091272;28;20420;-54
2024/02/18 12:42:57;;;;;;;;;;;16.50;85.50;;;;;;4091297;28;19930;-52
2024/02/18 12:45:44;;;;;;;;;;;16.60;86.30;;;;;;4091407;28;19930;-53
2024/02/18 12:48:29;;;;;;;;;;;16.70;85.20;;;;;;4086662;28;20430;-52
2024/02/18 12:51:10;;;;;;;;;;;16.90;84.50;;;;;;4079015;28;19930;-48
2024/02/18 12:53:52;;;;;;;;;;;17.10;84.40;;;;;;4090953;28;19934;-52
2024/02/18 12:56:33;;;;;;;;;;;17.30;84.10;;;;;;4078123;28;19929;-53
2024/02/18 12:59:14;;;;;;;;;;;17.40;83.70;;;;;;4072959;28;20296;-50
2024/02/18 13:01:58;;;;;;;;;;;17.60;83.40;;;;;;4079974;28;20653;-59
2024/02/18 13:04:38;;;;;;;;;;;17.80;83.00;;;;;;4091672;28;19933;-56
2024/02/18 13:07:20;;;;;;;;;;;17.80;82.60;;;;;;4091357;28;19957;-60
2024/02/18 13:10:00;;;;;;;;;;;17.90;82.10;;;;;;4088597;28;20311;-58
2024/02/18 13:12:41;;;;;;;;;;;18.10;82.10;;;;;;4106149;28;20060;-59
2024/02/18 13:15:22;;;;;;;;;;;18.20;81.50;;;;;;4090322;28;20057;-56
2024/02/18 13:18:04;;;;;;;;;;;18.40;81.40;;;;;;4107318;28;19940;-58
2024/02/18 13:20:45;;;;;;;;;;;18.40;81.20;;;;;;4076139;29;19930;-60
2024/02/18 13:23:26;;;;;;;;;;;18.50;81.00;;;;;;4075414;29;19934;-59
2024/02/18 13:26:08;;;;;;;;;;;18.50;80.90;;;;;;4079111;28;19934;-61
2024/02/18 13:28:48;;;;;;;;;;;18.60;80.90;;;;;;4090846;28;19930;-49
2024/02/18 13:31:29;;;;;;;;;;;18.60;80.50;;;;;;4099286;28;19929;-51
2024/02/18 13:34:11;;;;;;;;;;;18.60;80.00;;;;;;4091310;28;20295;-47
2024/02/18 13:36:52;;;;;;;;;;;18.70;79.60;;;;;;4090539;28;19930;-59
2024/02/18 13:39:34;;;;;;;;;;;18.70;79.20;;;;;;4090609;28;19964;-59
2024/02/18 13:42:14;;;;;;;;;;;18.70;78.90;;;;;;4101974;28;19933;-59
2024/02/18 13:44:58;;;;;;;;;;;18.70;78.70;;;;;;4089680;28;20077;-59
2024/02/18 13:47:39;;;;;;;;;;;18.70;78.70;;;;;;4090365;28;20418;-48
2024/02/18 13:50:21;;;;;;;;;;;18.60;78.80;;;;;;4090125;28;19934;-60
2024/02/18 13:53:03;;;;;;;;;;;18.60;79.10;;;;;;4090998;28;19929;-59
2024/02/18 13:55:43;;;;;;;;;;;18.60;78.90;;;;;;4090791;29;19929;-59
2024/02/18 13:58:24;;;;;;;;;;;18.60;79.70;;;;;;4102184;28;19981;-59
2024/02/18 14:01:05;;;;;;;;;;;18.50;79.00;;;;;;4090408;28;19929;-61
2024/02/18 14:03:45;;;;;;;;;;;18.60;79.20;;;;;;4090328;28;20283;-51
2024/02/18 14:06:28;;;;;;;;;;;18.60;79.30;;;;;;4078302;28;19964;-51
2024/02/18 14:09:12;;;;;;;;;;;18.50;79.30;;;;;;4100254;28;19940;-59
2024/02/18 14:11:53;;;;;;;;;;;18.50;80.10;;;;;;4089731;28;19930;-59
2024/02/18 14:14:33;;;;;;;;;;;18.50;79.40;;;;;;4088545;28;19933;-59
2024/02/18 14:17:17;;;;;;;;;;;18.60;79.30;;;;;;4090260;28;20391;-59
2024/02/18 14:19:58;;;;;;;;;;;18.50;79.10;;;;;;4074452;29;20292;-59
2024/02/18 14:22:40;;;;;;;;;;;18.60;79.10;;;;;;4074180;29;20359;-59
2024/02/18 14:25:21;;;;;;;;;;;18.60;78.90;;;;;;4078127;28;20009;-59
2024/02/18 14:28:02;;;;;;;;;;;18.60;78.80;;;;;;4090384;28;20061;-59
2024/02/18 14:30:43;;;;;;;;;;;18.60;78.70;;;;;;4088242;28;19933;-59
2024/02/18 14:33:24;;;;;;;;;;;18.60;78.60;;;;;;4077076;28;20402;-59
2024/02/18 14:36:05;;;;;;;;;;;18.60;78.70;;;;;;4091331;28;19933;-61
2024/02/18 14:38:47;;;;;;;;;;;18.60;78.70;;;;;;4089075;28;19933;-59
2024/02/18 14:41:28;;;;;;;;;;;18.50;79.70;;;;;;4088672;28;20054;-59
2024/02/18 14:44:10;;;;;;;;;;;18.40;79.00;;;;;;4089477;28;19989;-60
2024/02/18 14:46:50;;;;;;;;;;;18.40;79.40;;;;;;4059453;28;20014;-59
2024/02/18 14:49:33;;;;;;;;;;;18.30;79.60;;;;;;4083151;28;20392;-49
2024/02/18 14:52:17;;;;;;;;;;;18.40;79.70;;;;;;4074110;28;19977;-59
2024/02/18 14:54:59;;;;;;;;;;;18.50;79.30;;;;;;4073997;29;19930;-47
2024/02/18 14:57:40;;;;;;;;;;;18.50;80.00;;;;;;4080516;28;19934;-59
2024/02/18 15:00:22;;;;;;;;;;;18.50;79.10;;;;;;4089112;28;19929;-59
2024/02/18 15:03:03;;;;;;;;;;;18.50;79.10;;;;;;4087733;28;19933;-59
2024/02/18 15:05:45;;;;;;;;;;;18.50;79.90;;;;;;4087410;28;19933;-47
2024/02/18 15:08:26;;;;;;;;;;;18.50;78.80;;;;;;4090267;28;19933;-51
2024/02/18 15:11:08;;;;;;;;;;;18.50;79.10;;;;;;4089597;28;19929;-48
2024/02/18 15:13:48;;;;;;;;;;;18.50;79.30;;;;;;4089131;28;19933;-48
2024/02/18 15:16:30;;;;;;;;;;;18.50;79.20;;;;;;4089573;28;20371;-48
2024/02/18 15:19:11;;;;;;;;;;;18.50;79.20;;;;;;4097756;28;20078;-50
2024/02/18 15:21:52;;;;;;;;;;;18.40;80.30;;;;;;4093050;28;19928;-48
2024/02/18 15:24:33;;;;;;;;;;;18.50;79.40;;;;;;4099234;28;19933;-47
2024/02/18 15:27:15;;;;;;;;;;;18.50;79.20;;;;;;4084174;28;20387;-48
2024/02/18 15:29:57;;;;;;;;;;;18.50;80.00;;;;;;4088737;28;20008;-47
2024/02/18 15:32:39;;;;;;;;;;;18.50;79.10;;;;;;4089462;28;19933;-50
2024/02/18 15:35:20;;;;;;;;;;;18.50;79.40;;;;;;4087868;28;20073;-49
2024/02/18 15:38:02;;;;;;;;;;;18.50;79.70;;;;;;4088807;28;19929;-47